createdAt,value
2023-03-22T00:15:41.604Z,9.25
2023-03-22T00:45:41.604Z,9.44
2023-03-22T01:15:41.580Z,8.81
2023-03-22T01:45:41.592Z,8.31
2023-03-22T02:15:41.594Z,8.5
2023-03-22T02:45:41.604Z,7.88
2023-03-22T03:15:41.620Z,7.56
2023-03-22T03:45:41.652Z,7.19
2023-03-22T04:15:41.620Z,7.44
2023-03-22T04:45:41.637Z,7.25
2023-03-22T05:15:41.719Z,6.94
2023-03-22T05:45:41.644Z,6.75
2023-03-22T06:15:41.603Z,7.13
2023-03-22T06:45:41.657Z,7.69
2023-03-22T07:15:41.686Z,8.25
2023-03-22T07:45:41.610Z,9.13
2023-03-22T08:15:41.810Z,10.31
2023-03-22T08:45:42.062Z,11.06
2023-03-22T09:15:41.964Z,12.06
2023-03-22T09:45:41.947Z,13.5
2023-03-22T10:15:42.265Z,13.81
2023-03-22T10:45:41.833Z,14.13
2023-03-22T11:15:41.881Z,14.88
2023-03-22T11:45:41.675Z,15.31
2023-03-22T12:15:42.162Z,15.94
2023-03-22T12:45:41.810Z,16.81
2023-03-22T13:15:42.606Z,17.5
2023-03-22T13:45:41.896Z,17.38
2023-03-22T14:15:41.754Z,17.94
2023-03-22T15:15:42.000Z,17.19
2023-03-22T15:45:41.872Z,17.25
2023-03-22T16:15:42.005Z,17.31
2023-03-22T16:45:41.988Z,16.5
2023-03-22T17:15:41.713Z,15.94
2023-03-22T17:46:11.263Z,14.94
2023-03-22T18:15:41.697Z,13.81
2023-03-22T18:45:56.792Z,13.25
2023-03-22T19:15:46.876Z,12.56
2023-03-22T19:45:41.955Z,11.75
2023-03-22T20:15:41.888Z,11
2023-03-22T20:45:41.853Z,10.75
2023-03-22T21:15:41.954Z,10.56
2023-03-22T21:45:41.975Z,10.63
2023-03-22T22:15:41.957Z,10.44
2023-03-22T22:45:41.904Z,10.38
2023-03-22T23:15:41.914Z,10.06
2023-03-22T23:45:41.950Z,10.19
